createdAt,value
2024-04-16T00:01:59.937Z,12.11
2024-04-16T00:04:33.458Z,12.05
2024-04-16T00:07:00.744Z,11.99
2024-04-16T00:09:27.653Z,11.91
2024-04-16T00:11:54.501Z,11.77
2024-04-16T00:14:21.535Z,11.64
2024-04-16T00:16:48.487Z,11.58
2024-04-16T00:19:15.421Z,11.55
2024-04-16T00:21:42.236Z,11.48
2024-04-16T00:24:08.916Z,11.48
2024-04-16T00:26:35.672Z,11.49
2024-04-16T00:29:02.565Z,11.47
2024-04-16T00:31:29.338Z,11.41
2024-04-16T00:33:57.141Z,11.27
2024-04-16T00:36:24.329Z,11.19
2024-04-16T00:38:51.060Z,11.22
2024-04-16T00:41:17.988Z,11.20
2024-04-16T00:43:44.752Z,11.08
2024-04-16T00:46:13.479Z,11.03
2024-04-16T00:48:40.829Z,10.95
2024-04-16T00:51:08.147Z,10.86
2024-04-16T00:53:35.126Z,10.78
2024-04-16T00:56:02.399Z,10.69
2024-04-16T00:58:30.888Z,10.57
2024-04-16T01:00:57.839Z,10.48
2024-04-16T01:03:24.608Z,10.43
2024-04-16T01:05:52.220Z,10.37
2024-04-16T01:08:18.951Z,10.32
2024-04-16T01:10:45.797Z,10.36
2024-04-16T01:13:12.541Z,10.33
2024-04-16T01:15:39.255Z,10.24
2024-04-16T01:18:08.463Z,10.12
2024-04-16T01:20:35.902Z,10.15
2024-04-16T01:23:02.951Z,10.18
2024-04-16T01:25:32.627Z,10.15
2024-04-16T01:27:59.649Z,10.16
2024-04-16T01:30:26.406Z,10.09
2024-04-16T01:32:53.306Z,9.98
2024-04-16T01:35:20.138Z,9.95
2024-04-16T01:37:46.889Z,9.97
2024-04-16T01:40:14.400Z,9.99
2024-04-16T01:42:42.509Z,9.88
2024-04-16T01:45:09.172Z,9.75
2024-04-16T01:47:36.262Z,9.72
2024-04-16T01:50:03.480Z,9.67
2024-04-16T01:52:30.302Z,9.67
2024-04-16T01:54:57.192Z,9.73
2024-04-16T01:57:24.502Z,9.67
2024-04-16T01:59:51.681Z,9.71
2024-04-16T02:02:19.514Z,9.70
2024-04-16T02:04:46.829Z,9.70
2024-04-16T02:07:13.728Z,9.66
2024-04-16T02:09:40.525Z,9.55
2024-04-16T02:12:07.593Z,9.45
2024-04-16T02:14:34.385Z,9.36
2024-04-16T02:17:01.194Z,9.31
2024-04-16T02:19:27.988Z,9.31
2024-04-16T02:21:54.766Z,9.27
2024-04-16T02:24:22.422Z,9.30
2024-04-16T02:26:49.334Z,9.25
2024-04-16T02:29:16.003Z,9.30
2024-04-16T02:31:42.885Z,9.21
2024-04-16T02:34:10.014Z,9.11
2024-04-16T02:36:37.279Z,8.99
2024-04-16T02:39:04.009Z,8.90
2024-04-16T02:41:31.083Z,8.90
2024-04-16T02:43:57.839Z,8.89
2024-04-16T02:46:24.614Z,8.82
2024-04-16T02:48:51.516Z,8.76
2024-04-16T02:51:22.413Z,8.72
2024-04-16T02:53:49.381Z,8.67
2024-04-16T02:56:16.210Z,8.64
2024-04-16T02:58:44.972Z,8.64
2024-04-16T03:01:11.793Z,8.63
2024-04-16T03:03:39.060Z,8.57
2024-04-16T03:06:06.181Z,8.56
2024-04-16T03:08:33.130Z,8.47
2024-04-16T03:11:01.019Z,8.44
2024-04-16T03:13:28.910Z,8.39
2024-04-16T03:15:56.078Z,8.41
2024-04-16T03:18:22.918Z,8.35
2024-04-16T03:20:59.423Z,8.34
2024-04-16T03:23:26.186Z,8.32
2024-04-16T03:25:52.976Z,8.28
2024-04-16T03:28:19.967Z,8.26
2024-04-16T03:30:46.622Z,8.25
2024-04-16T03:33:13.448Z,8.26
2024-04-16T03:35:40.348Z,8.37
2024-04-16T03:38:07.073Z,8.37
2024-04-16T03:40:34.456Z,8.35
2024-04-16T03:43:01.398Z,8.29
2024-04-16T03:45:28.207Z,8.26
2024-04-16T03:50:21.817Z,8.38
2024-04-16T03:52:49.073Z,8.48
2024-04-16T03:55:15.909Z,8.51
2024-04-16T03:57:42.854Z,8.53
2024-04-16T04:00:28.962Z,8.56
2024-04-16T04:02:55.905Z,8.57
2024-04-16T04:05:23.246Z,8.52
2024-04-16T04:07:50.042Z,8.47
2024-04-16T04:10:18.630Z,8.45
2024-04-16T04:12:45.397Z,8.61
2024-04-16T04:15:12.152Z,8.75
2024-04-16T04:17:39.102Z,8.77
2024-04-16T04:20:05.948Z,8.78
2024-04-16T04:22:33.050Z,8.73
2024-04-16T04:24:59.966Z,8.68
2024-04-16T04:27:26.752Z,8.58
2024-04-16T04:29:53.592Z,8.56
2024-04-16T04:32:20.446Z,8.60
2024-04-16T04:34:47.233Z,8.62
2024-04-16T04:37:14.138Z,8.58
2024-04-16T04:39:41.117Z,8.53
2024-04-16T04:42:07.917Z,8.45
2024-04-16T04:44:35.538Z,8.38
2024-04-16T04:47:02.971Z,8.29
2024-04-16T04:49:29.723Z,8.24
2024-04-16T04:51:56.576Z,8.21
2024-04-16T04:54:23.541Z,8.25
2024-04-16T04:56:50.578Z,8.25
2024-04-16T04:59:17.673Z,8.24
2024-04-16T05:01:44.612Z,8.21
2024-04-16T05:04:11.415Z,8.16
2024-04-16T05:06:38.876Z,8.12
2024-04-16T05:09:07.214Z,8.12
2024-04-16T05:11:34.871Z,8.06
2024-04-16T05:14:01.767Z,8.04
2024-04-16T05:16:28.789Z,8.01
2024-04-16T05:18:55.604Z,7.97
2024-04-16T05:21:22.473Z,7.95
2024-04-16T05:23:50.615Z,7.93
2024-04-16T05:26:18.420Z,7.88
2024-04-16T05:28:45.325Z,7.87
2024-04-16T05:31:12.470Z,7.82
2024-04-16T05:33:39.508Z,7.80
2024-04-16T05:36:06.873Z,7.79
2024-04-16T05:38:37.512Z,7.83
2024-04-16T05:41:05.006Z,7.80
2024-04-16T05:43:31.902Z,7.81
2024-04-16T05:46:17.378Z,7.82
2024-04-16T05:48:44.327Z,7.84
2024-04-16T05:51:11.113Z,7.91
2024-04-16T05:53:37.933Z,7.96
2024-04-16T05:56:05.004Z,7.99
2024-04-16T05:58:31.813Z,8.00
2024-04-16T06:00:58.958Z,8.02
2024-04-16T06:03:25.743Z,7.98
2024-04-16T06:05:52.548Z,7.92
2024-04-16T06:08:19.320Z,7.88
2024-04-16T06:10:46.199Z,7.87
2024-04-16T06:13:12.916Z,7.91
2024-04-16T06:15:39.698Z,7.97
2024-04-16T06:18:10.832Z,8.03
2024-04-16T06:20:37.914Z,8.05
2024-04-16T06:23:04.619Z,8.06
2024-04-16T06:25:31.478Z,8.09
2024-04-16T06:27:58.766Z,8.19
2024-04-16T06:30:25.488Z,8.28
2024-04-16T06:32:52.448Z,8.34
2024-04-16T06:35:19.216Z,8.38
2024-04-16T06:37:46.130Z,8.43
2024-04-16T06:40:13.068Z,8.47
2024-04-16T06:42:40.027Z,8.55
2024-04-16T06:45:06.999Z,8.61
2024-04-16T06:47:35.442Z,8.70
2024-04-16T06:50:05.913Z,8.69
2024-04-16T06:52:33.193Z,8.67
2024-04-16T06:55:00.328Z,8.62
2024-04-16T06:57:27.436Z,8.54
2024-04-16T06:59:55.130Z,8.47
2024-04-16T07:02:22.272Z,8.42
2024-04-16T07:04:49.088Z,8.29
2024-04-16T07:07:16.104Z,8.15
2024-04-16T07:09:44.560Z,8.13
2024-04-16T07:12:11.495Z,8.09
2024-04-16T07:14:38.351Z,8.16
2024-04-16T07:17:05.619Z,8.25
2024-04-16T07:19:32.467Z,8.25
2024-04-16T07:21:59.466Z,8.28
2024-04-16T07:24:26.396Z,8.27
2024-04-16T07:26:53.393Z,8.24
2024-04-16T07:29:20.028Z,8.25
2024-04-16T07:31:49.960Z,8.27
2024-04-16T07:34:17.691Z,8.31
2024-04-16T07:36:44.668Z,8.32
2024-04-16T07:39:11.588Z,8.31
2024-04-16T07:41:38.326Z,8.29
2024-04-16T07:44:05.195Z,8.35
2024-04-16T07:46:35.007Z,8.38
2024-04-16T07:49:02.182Z,8.45
2024-04-16T07:51:28.904Z,8.51
2024-04-16T07:53:55.652Z,8.52
2024-04-16T07:56:22.922Z,8.53
2024-04-16T07:58:49.866Z,8.53
2024-04-16T08:01:18.706Z,8.59
2024-04-16T08:03:45.661Z,8.61
2024-04-16T08:06:12.863Z,8.62
2024-04-16T08:08:39.729Z,8.57
2024-04-16T08:11:14.405Z,8.58
2024-04-16T08:13:42.393Z,8.56
2024-04-16T08:16:09.808Z,8.52
2024-04-16T08:18:36.973Z,8.48
2024-04-16T08:21:05.469Z,8.47
2024-04-16T08:23:32.310Z,8.56
2024-04-16T08:26:06.893Z,8.68
2024-04-16T08:28:36.179Z,8.72
2024-04-16T08:31:04.509Z,8.83
2024-04-16T08:33:31.712Z,9.04
2024-04-16T08:35:59.096Z,9.26
2024-04-16T08:38:26.696Z,9.50
2024-04-16T08:40:53.715Z,9.62
2024-04-16T08:43:22.652Z,9.77
2024-04-16T08:45:50.456Z,9.97
2024-04-16T08:48:19.132Z,10.16
2024-04-16T08:50:47.521Z,10.23
2024-04-16T08:53:15.093Z,10.21
2024-04-16T08:55:42.823Z,10.21
2024-04-16T08:58:10.183Z,10.18
2024-04-16T09:00:37.256Z,10.05
2024-04-16T09:03:05.396Z,9.99
2024-04-16T09:05:33.914Z,9.99
2024-04-16T09:08:01.302Z,9.98
2024-04-16T09:10:28.851Z,9.97
2024-04-16T09:12:55.972Z,9.98
2024-04-16T09:15:23.426Z,9.99
2024-04-16T09:17:55.021Z,9.99
2024-04-16T09:20:26.011Z,10.05
2024-04-16T09:22:54.168Z,10.09
2024-04-16T09:25:25.903Z,10.15
2024-04-16T09:27:55.141Z,10.15
2024-04-16T09:30:25.724Z,10.20
2024-04-16T09:33:05.237Z,10.21
2024-04-16T09:35:36.106Z,10.18
2024-04-16T09:38:08.663Z,10.36
2024-04-16T09:40:36.668Z,10.50
2024-04-16T09:43:06.902Z,10.61
2024-04-16T09:45:36.037Z,10.61
2024-04-16T09:48:05.697Z,10.67
2024-04-16T09:50:46.356Z,10.69
2024-04-16T09:53:22.683Z,10.97
2024-04-16T09:55:51.372Z,11.32
2024-04-16T09:58:18.916Z,11.47
2024-04-16T10:00:47.134Z,11.47
2024-04-16T10:03:15.317Z,11.62
2024-04-16T10:05:42.247Z,11.77
2024-04-16T10:08:09.078Z,11.92
2024-04-16T10:10:36.018Z,11.99
2024-04-16T10:13:02.893Z,12.08
2024-04-16T10:15:29.999Z,12.31
2024-04-16T10:17:57.954Z,12.46
2024-04-16T10:20:30.819Z,12.44
2024-04-16T10:22:59.814Z,12.41
2024-04-16T10:25:34.678Z,12.23
2024-04-16T10:28:06.104Z,12.03
2024-04-16T10:30:36.630Z,11.80
2024-04-16T10:33:06.502Z,11.77
2024-04-16T10:35:35.639Z,11.88
2024-04-16T10:38:07.185Z,12.24
2024-04-16T10:40:35.470Z,12.56
2024-04-16T10:43:02.684Z,12.50
2024-04-16T10:45:33.258Z,12.40
2024-04-16T10:48:01.546Z,12.39
2024-04-16T10:50:28.443Z,12.38
2024-04-16T10:52:56.947Z,12.35
2024-04-16T10:55:24.195Z,12.29
2024-04-16T10:57:51.560Z,12.16
2024-04-16T11:00:18.570Z,11.96
2024-04-16T11:02:46.827Z,11.86
2024-04-16T11:05:19.533Z,11.77
2024-04-16T11:07:46.606Z,11.68
2024-04-16T11:10:13.753Z,11.52
2024-04-16T11:12:40.803Z,11.37
2024-04-16T11:15:08.079Z,11.27
2024-04-16T11:17:35.379Z,11.17
2024-04-16T11:20:03.389Z,11.13
2024-04-16T11:22:30.919Z,11.11
2024-04-16T11:24:58.078Z,11.08
2024-04-16T11:27:25.985Z,11.24
2024-04-16T11:29:53.414Z,11.34
2024-04-16T11:32:22.127Z,11.37
2024-04-16T11:34:49.872Z,11.43
2024-04-16T11:37:18.874Z,11.45
2024-04-16T11:39:46.204Z,11.41
2024-04-16T11:42:13.660Z,11.36
2024-04-16T11:44:41.816Z,11.30
2024-04-16T11:47:09.615Z,11.39
2024-04-16T11:49:38.875Z,11.56
2024-04-16T11:52:06.313Z,11.53
2024-04-16T11:54:36.265Z,11.55
2024-04-16T11:57:05.017Z,11.55
2024-04-16T11:59:33.117Z,11.65
2024-04-16T12:02:00.705Z,11.86
2024-04-16T12:04:28.490Z,12.00
2024-04-16T12:06:57.031Z,12.03
2024-04-16T12:09:24.801Z,11.99
2024-04-16T12:11:52.645Z,11.95
2024-04-16T12:14:21.231Z,11.94
2024-04-16T12:16:51.339Z,11.95
2024-04-16T12:19:19.632Z,12.25
2024-04-16T12:21:47.834Z,12.62
2024-04-16T12:24:15.146Z,12.74
2024-04-16T12:26:42.027Z,12.90
2024-04-16T12:29:08.874Z,13.07
2024-04-16T12:31:35.857Z,13.06
2024-04-16T12:34:03.960Z,12.94
2024-04-16T12:36:31.892Z,12.65
2024-04-16T12:38:59.167Z,12.31
2024-04-16T12:41:25.914Z,12.33
2024-04-16T12:43:53.880Z,12.63
2024-04-16T12:46:20.990Z,12.95
2024-04-16T12:48:47.995Z,13.27
2024-04-16T12:51:14.843Z,13.69
2024-04-16T12:53:41.981Z,14.04
2024-04-16T12:56:12.614Z,13.95
2024-04-16T12:58:39.703Z,13.77
2024-04-16T13:01:06.618Z,13.62
2024-04-16T13:03:33.573Z,13.52
2024-04-16T13:06:00.523Z,13.37
2024-04-16T13:08:27.173Z,13.17
2024-04-16T13:10:54.879Z,13.07
2024-04-16T13:13:22.110Z,13.01
2024-04-16T13:15:49.103Z,12.86
2024-04-16T13:18:15.815Z,12.66
2024-04-16T13:20:42.757Z,12.51
2024-04-16T13:23:09.521Z,12.35
2024-04-16T13:25:36.357Z,11.99
2024-04-16T13:28:03.084Z,11.77
2024-04-16T13:30:30.085Z,11.69
2024-04-16T13:32:59.155Z,11.91
2024-04-16T13:35:26.755Z,12.34
2024-04-16T13:37:56.526Z,12.71
2024-04-16T13:40:23.890Z,13.05
2024-04-16T13:42:50.753Z,13.27
2024-04-16T13:45:17.675Z,13.46
2024-04-16T13:47:44.668Z,13.53
2024-04-16T13:50:12.395Z,13.59
2024-04-16T13:52:39.410Z,13.47
2024-04-16T13:55:06.449Z,13.28
2024-04-16T13:57:33.231Z,13.25
2024-04-16T13:59:59.959Z,13.20
2024-04-16T14:02:28.284Z,13.17
2024-04-16T14:04:55.084Z,13.17
2024-04-16T14:07:21.842Z,13.21
2024-04-16T14:09:48.661Z,13.23
2024-04-16T14:12:15.437Z,13.14
2024-04-16T14:14:42.031Z,13.01
2024-04-16T14:17:09.037Z,12.84
2024-04-16T14:19:36.092Z,12.64
2024-04-16T14:22:02.902Z,12.39
2024-04-16T14:24:34.631Z,12.15
2024-04-16T14:27:01.885Z,11.98
2024-04-16T14:29:30.205Z,11.88
2024-04-16T14:31:59.436Z,11.87
2024-04-16T14:34:26.668Z,11.93
2024-04-16T14:36:54.622Z,12.08
2024-04-16T14:39:22.019Z,12.23
2024-04-16T14:41:49.935Z,12.46
2024-04-16T14:44:16.870Z,12.61
2024-04-16T14:46:52.423Z,12.66
2024-04-16T14:49:19.740Z,12.76
2024-04-16T14:51:50.097Z,12.83
2024-04-16T14:54:16.869Z,12.90
2024-04-16T14:56:43.765Z,12.95
2024-04-16T14:59:10.553Z,13.04
2024-04-16T15:01:37.725Z,12.99
2024-04-16T15:04:04.862Z,12.96
2024-04-16T15:06:31.932Z,13.04
2024-04-16T15:08:58.763Z,13.17
2024-04-16T15:11:25.653Z,13.18
2024-04-16T15:13:52.630Z,13.24
2024-04-16T15:16:19.805Z,13.35
2024-04-16T15:18:46.947Z,13.42
2024-04-16T15:21:14.760Z,13.45
2024-04-16T15:23:42.041Z,13.34
2024-04-16T15:26:09.459Z,13.36
2024-04-16T15:28:38.034Z,13.28
2024-04-16T15:31:06.209Z,13.12
2024-04-16T15:33:33.273Z,12.95
2024-04-16T15:36:00.069Z,12.90
2024-04-16T15:38:26.832Z,12.87
2024-04-16T15:40:53.510Z,12.98
2024-04-16T15:43:20.943Z,13.11
2024-04-16T15:45:47.811Z,13.15
2024-04-16T15:48:15.600Z,13.16
2024-04-16T15:50:42.620Z,13.15
2024-04-16T15:53:11.410Z,13.07
2024-04-16T15:55:38.281Z,13.00
2024-04-16T15:58:05.290Z,13.02
2024-04-16T16:00:32.240Z,13.02
2024-04-16T16:02:59.218Z,12.90
2024-04-16T16:05:25.994Z,12.73
2024-04-16T16:07:52.883Z,12.49
2024-04-16T16:10:20.369Z,12.24
2024-04-16T16:12:47.614Z,12.09
2024-04-16T16:15:15.050Z,11.96
2024-04-16T16:17:41.980Z,11.83
2024-04-16T16:20:09.302Z,11.71
2024-04-16T16:22:38.153Z,11.64
2024-04-16T16:25:05.664Z,11.64
2024-04-16T16:27:32.469Z,11.63
2024-04-16T16:29:59.147Z,11.58
2024-04-16T16:32:26.492Z,11.55
2024-04-16T16:35:06.547Z,11.43
2024-04-16T16:37:33.565Z,11.40
2024-04-16T16:40:05.150Z,11.40
2024-04-16T16:42:32.375Z,11.38
2024-04-16T16:45:01.485Z,11.44
2024-04-16T16:47:30.277Z,11.57
2024-04-16T16:49:57.323Z,11.70
2024-04-16T16:52:24.204Z,11.70
2024-04-16T16:54:51.404Z,11.68
2024-04-16T16:57:18.238Z,11.60
2024-04-16T16:59:45.109Z,11.56
2024-04-16T17:02:12.262Z,11.51
2024-04-16T17:04:39.316Z,11.50
2024-04-16T17:07:06.693Z,11.49
2024-04-16T17:09:33.580Z,11.55
2024-04-16T17:12:00.550Z,11.52
2024-04-16T17:14:27.581Z,11.50
2024-04-16T17:16:54.536Z,11.49
2024-04-16T17:19:21.549Z,11.45
2024-04-16T17:21:48.534Z,11.38
2024-04-16T17:24:15.509Z,11.28
2024-04-16T17:26:42.394Z,11.11
2024-04-16T17:29:09.394Z,10.98
2024-04-16T17:31:36.313Z,10.90
2024-04-16T17:34:03.333Z,10.80
2024-04-16T17:36:30.232Z,10.74
2024-04-16T17:38:57.024Z,10.68
2024-04-16T17:41:23.964Z,10.57
2024-04-16T17:43:56.259Z,10.53
2024-04-16T17:46:24.529Z,10.49
2024-04-16T17:48:51.410Z,10.48
2024-04-16T17:51:19.109Z,10.52
2024-04-16T17:53:46.067Z,10.55
2024-04-16T17:56:15.237Z,10.47
2024-04-16T17:58:43.608Z,10.41
2024-04-16T18:01:10.767Z,10.29
2024-04-16T18:03:38.264Z,10.30
2024-04-16T18:06:05.799Z,10.24
2024-04-16T18:08:42.532Z,10.17
2024-04-16T18:11:12.715Z,10.09
2024-04-16T18:13:43.846Z,9.95
2024-04-16T18:16:10.941Z,9.89
2024-04-16T18:18:37.775Z,9.82
2024-04-16T18:21:05.142Z,9.77
2024-04-16T18:23:34.373Z,9.73
2024-04-16T18:26:01.234Z,9.73
2024-04-16T18:28:28.269Z,9.75
2024-04-16T18:30:55.335Z,9.85
2024-04-16T18:33:22.411Z,9.95
2024-04-16T18:35:49.557Z,9.92
2024-04-16T18:38:17.602Z,9.88
2024-04-16T18:40:44.654Z,9.84
2024-04-16T18:43:11.367Z,9.84
2024-04-16T18:45:44.681Z,9.80
2024-04-16T18:48:11.849Z,9.74
2024-04-16T18:50:38.706Z,9.63
2024-04-16T18:53:05.467Z,9.56
2024-04-16T18:55:32.247Z,9.46
2024-04-16T18:57:59.154Z,9.34
2024-04-16T19:00:26.049Z,9.25
2024-04-16T19:02:53.218Z,9.30
2024-04-16T19:05:20.055Z,9.32
2024-04-16T19:07:47.122Z,9.34
2024-04-16T19:10:14.445Z,9.32
2024-04-16T19:12:41.620Z,9.32
2024-04-16T19:15:10.697Z,9.35
2024-04-16T19:17:38.337Z,9.39
2024-04-16T19:20:05.811Z,9.32
2024-04-16T19:22:32.878Z,9.25
2024-04-16T19:25:00.394Z,9.23
2024-04-16T19:27:27.533Z,9.19
2024-04-16T19:29:56.595Z,9.19
2024-04-16T19:32:23.460Z,9.16
2024-04-16T19:34:50.573Z,9.19
2024-04-16T19:37:17.469Z,9.25
2024-04-16T19:39:44.228Z,9.23
2024-04-16T19:42:11.981Z,9.23
2024-04-16T19:44:38.833Z,9.22
2024-04-16T19:47:06.013Z,9.21
2024-04-16T19:49:32.890Z,9.21
2024-04-16T19:52:00.325Z,9.18
2024-04-16T19:54:28.384Z,9.10
2024-04-16T19:56:55.633Z,9.08
2024-04-16T19:59:22.510Z,9.05
2024-04-16T20:01:49.670Z,8.97
2024-04-16T20:04:16.677Z,8.94
2024-04-16T20:06:43.534Z,8.97
2024-04-16T20:09:10.275Z,8.97
2024-04-16T20:11:37.105Z,8.95
2024-04-16T20:14:04.033Z,8.98
2024-04-16T20:16:30.983Z,8.98
2024-04-16T20:19:03.507Z,9.01
2024-04-16T20:21:31.251Z,9.03
2024-04-16T20:23:59.747Z,9.07
2024-04-16T20:26:26.781Z,9.06
2024-04-16T20:28:53.710Z,9.07
2024-04-16T20:31:20.409Z,9.06
2024-04-16T20:33:47.830Z,9.07
2024-04-16T20:36:15.008Z,9.09
2024-04-16T20:38:42.418Z,9.02
2024-04-16T20:41:09.291Z,8.99
2024-04-16T20:43:36.311Z,8.98
2024-04-16T20:46:03.242Z,8.97
2024-04-16T20:48:30.184Z,8.96
2024-04-16T20:51:03.617Z,8.90
2024-04-16T20:53:32.793Z,8.85
2024-04-16T20:55:59.831Z,8.83
2024-04-16T20:58:27.305Z,8.83
2024-04-16T21:00:54.810Z,8.88
2024-04-16T21:03:22.184Z,8.88
2024-04-16T21:05:49.167Z,8.87
2024-04-16T21:08:16.113Z,8.83
2024-04-16T21:10:43.216Z,8.83
2024-04-16T21:13:10.374Z,8.78
2024-04-16T21:15:38.891Z,8.76
2024-04-16T21:18:07.001Z,8.75
2024-04-16T21:20:34.042Z,8.74
2024-04-16T21:23:00.832Z,8.71
2024-04-16T21:25:28.890Z,8.67
2024-04-16T21:27:55.741Z,8.61
2024-04-16T21:30:22.811Z,8.56
2024-04-16T21:32:51.296Z,8.56
2024-04-16T21:35:18.750Z,8.58
2024-04-16T21:37:45.745Z,8.57
2024-04-16T21:40:12.477Z,8.57
2024-04-16T21:42:42.665Z,8.61
2024-04-16T21:45:09.709Z,8.66
2024-04-16T21:47:36.631Z,8.69
2024-04-16T21:50:04.121Z,8.73
2024-04-16T21:52:30.932Z,8.80
2024-04-16T21:54:57.816Z,8.85
2024-04-16T21:57:24.582Z,8.88
2024-04-16T21:59:54.398Z,8.93
2024-04-16T22:02:22.121Z,8.99
2024-04-16T22:04:49.034Z,9.01
2024-04-16T22:07:16.040Z,9.01
2024-04-16T22:09:42.936Z,9.04
2024-04-16T22:12:09.727Z,9.07
2024-04-16T22:14:36.556Z,9.04
2024-04-16T22:17:03.399Z,8.98
2024-04-16T22:19:30.356Z,8.92
2024-04-16T22:21:57.087Z,8.87
2024-04-16T22:24:23.949Z,8.83
2024-04-16T22:26:51.167Z,8.81
2024-04-16T22:29:18.747Z,8.80
2024-04-16T22:31:45.629Z,8.79
2024-04-16T22:34:13.507Z,8.75
2024-04-16T22:36:40.626Z,8.69
2024-04-16T22:39:07.397Z,8.70
2024-04-16T22:41:34.228Z,8.67
2024-04-16T22:44:00.979Z,8.66
2024-04-16T22:46:28.030Z,8.67
2024-04-16T22:48:54.800Z,8.65
2024-04-16T22:51:21.537Z,8.62
2024-04-16T22:53:48.297Z,8.62
2024-04-16T22:56:15.056Z,8.64
2024-04-16T22:58:42.077Z,8.66
2024-04-16T23:01:08.748Z,8.69
2024-04-16T23:03:35.596Z,8.69
2024-04-16T23:06:02.470Z,8.71
2024-04-16T23:08:29.389Z,8.72
2024-04-16T23:10:58.272Z,8.74
2024-04-16T23:13:25.371Z,8.73
2024-04-16T23:15:52.087Z,8.71
2024-04-16T23:18:19.052Z,8.70
2024-04-16T23:20:47.081Z,8.67
2024-04-16T23:23:13.884Z,8.62
2024-04-16T23:25:40.993Z,8.62
2024-04-16T23:28:08.344Z,8.59
2024-04-16T23:30:35.188Z,8.57
2024-04-16T23:33:02.114Z,8.52
2024-04-16T23:35:29.081Z,8.50
2024-04-16T23:37:55.935Z,8.49
2024-04-16T23:40:22.822Z,8.48
2024-04-16T23:42:49.970Z,8.46
2024-04-16T23:45:36.985Z,8.46
2024-04-16T23:48:24.261Z,8.46
2024-04-16T23:50:51.253Z,8.42
2024-04-16T23:53:17.999Z,8.38
2024-04-16T23:55:44.817Z,8.34
2024-04-16T23:58:12.747Z,8.31
